ADDS METAR Data INFO
IDs: Format: Raw Decoded Include TAF

Data at: 0432 UTC 24 Apr 2018

KDFW 240353Z 31006KT 10SM CLR 20/11 A3002 RMK AO2 SLP161 T02000106 $
KDFW 240253Z COR 00000KT 10SM CLR 20/11 A3001 RMK AO2 SLP157 T02000106 53012 $
KDFW 240153Z COR 36003KT 10SM CLR 21/11 A2999 RMK AO2 SLP150 T02110106 $
KDFW 240053Z 33006KT 10SM FEW050 22/10 A2998 RMK AO2 SLP148 T02170100 $
KDFW 232353Z VRB05KT 10SM FEW050 23/11 A2998 RMK AO2 SLP146 T02330106 10244 20206 56010 $
KDFW 232253Z 31006G14KT 10SM SCT050 24/10 A2998 RMK AO2 SLP148 T02390100 $
KDFW 232153Z 31008KT 10SM BKN047 24/11 A2999 RMK AO2 SLP150 T02390106 $
KDFW 232053Z 33008G19KT 10SM SCT046 23/11 A3001 RMK AO2 SLP157 T02330106 58020 $
KDFW 231953Z 33013G20KT 10SM BKN043 23/11 A3003 RMK AO2 SLP164 T02280106 $
KDFW 231853Z 32011G20KT 10SM SCT040 BKN250 22/11 A3005 RMK AO2 SLP171 SCT V BKN T02220106 $
KDFW 231753Z 32014KT 10SM SCT034 BKN250 21/11 A3007 RMK AO2 SLP176 SCT V BKN T02110111 10211 20111 58006 $
KDFW 231653Z 32010G18KT 10SM SCT030 BKN250 20/11 A3008 RMK AO2 SLP182 T02000106 $
KDFW 231553Z 31011KT 10SM FEW023 SCT250 18/11 A3009 RMK AO2 SLP185 T01830106 $
KDFW 231453Z 34010KT 10SM FEW021 SCT250 16/11 A3009 RMK AO2 SLP183 T01610106 51002 $
KDFW 231353Z 33014KT 10SM SCT021 BKN250 14/10 A3008 RMK AO2 SLP183 T01440100 $
KDFW 231350Z 32013KT 10SM SCT021 BKN250 14/10 A3009 RMK AO2 $
KDFW 231253Z 32011KT 10SM BKN020 BKN250 12/09 A3008 RMK AO2 SLP183 T01170089 $
KDFW 231244Z 30012KT 10SM BKN020 BKN250 12/09 A3008 RMK AO2 T01170089 $
KDFW 231210Z 32010KT 10SM SCT012 BKN250 12/09 A3007 RMK AO2 T01170094 $
KDFW 231153Z 33013KT 10SM BKN012 BKN250 11/09 A3007 RMK AO2 SLP177 T01110094 10144 20106 53018 $
KDFW 231127Z 36013KT 10SM BKN012 BKN250 11/09 A3004 RMK AO2 T01060089 $
KDFW 231053Z 34009KT 10SM FEW250 11/09 A3003 RMK AO2 SLP167 T01060089 $
KDFW 230953Z 34008KT 10SM CLR 11/08 A3002 RMK AO2 SLP162 T01110083 $
KDFW 230853Z 35007KT 10SM CLR 11/08 A3001 RMK AO2 SLP158 T01110083 58003 $
KDFW 230753Z 34008KT 10SM FEW250 12/09 A3002 RMK AO2 SLP160 T01220089 $
KDFW 230653Z 31011KT 10SM FEW250 13/08 A3002 RMK AO2 SLP162 T01330078 $
KDFW 230553Z 30007KT 10SM FEW250 14/08 A3002 RMK AO2 SLP161 T01390078 10189 20139 402060106 58003 $
KDFW 230453Z 28009KT 10SM SCT250 15/08 A3002 RMK AO2 SLP161 T01500078 $
KDFW 230353Z 30008KT 10SM FEW060 FEW250 16/08 A3003 RMK AO2 SLP164 T01610078 $
KDFW 230253Z 31009KT 10SM FEW060 FEW250 16/08 A3003 RMK AO2 SLP165 T01610078 53006 $
KDFW 230153Z 30007KT 10SM BKN060 17/07 A3001 RMK AO2 SLP160 T01670072 $
KDFW 230053Z 33009KT 10SM SCT055 17/07 A3001 RMK AO2 SLP159 T01720072 $
KDFW 222353Z 33011KT 10SM BKN055 19/07 A3001 RMK AO2 SLP159 T01890067 10206 20167 55002 $
KDFW 222253Z 35013KT 10SM SCT050 19/07 A3001 RMK AO2 SLP156 T01940067 $
KDFW 222153Z 34013KT 10SM BKN050 19/06 A3001 RMK AO2 SLP157 T01890061 $
KDFW 222053Z 33018G24KT 10SM BKN047 19/06 A3001 RMK AO2 SLP159 T01940061 57022 $
KDFW 221953Z 31017G23KT 10SM BKN046 19/07 A3004 RMK AO2 SLP166 T01890067 $
KDFW 221853Z 32015G22KT 10SM BKN043 BKN049 17/06 A3006 RMK AO2 SLP175 T01720061 $
KDFW 221753Z 32012G21KT 10SM BKN039 17/07 A3008 RMK AO2 SLP182 T01720067 10178 20106 50000 $
KDFW 221653Z 33016KT 10SM BKN034 16/07 A3009 RMK AO2 SLP187 T01560067 $